Time;durP1;ratioP1;P1;durP2;ratioP2;P2;SDS_P1;SDS_P2;PMS_P1;PMS_P2;Temp;Humidity;BMP_temperature;BMP_pressure;BME280_temperature;BME280_humidity;BME280_pressure;Samples;Min_cycle;Max_cycle;Signal;HPM_P1;HPM_P2
2022/05/12 00:00:20;;;;;;;;;;;10.50;99.90;;;;;;5034899;28;19909;-70
2022/05/12 00:02:45;;;;;;;;;;;10.30;99.90;;;;;;5035895;28;19917;-70
2022/05/12 00:05:11;;;;;;;;;;;10.30;99.90;;;;;;5032780;28;19917;-70
2022/05/12 00:07:37;;;;;;;;;;;10.20;99.90;;;;;;5033367;28;19917;-70
2022/05/12 00:10:03;;;;;;;;;;;10.10;99.90;;;;;;5035837;28;20311;-70
2022/05/12 00:12:28;;;;;;;;;;;10.00;99.90;;;;;;5034360;28;19921;-71
2022/05/12 00:14:54;;;;;;;;;;;10.00;99.90;;;;;;5028877;28;19921;-71
2022/05/12 00:17:20;;;;;;;;;;;9.90;99.90;;;;;;5021188;28;19913;-70
2022/05/12 00:19:48;;;;;;;;;;;9.90;99.90;;;;;;5021190;28;20230;-70
2022/05/12 00:22:14;;;;;;;;;;;9.90;99.90;;;;;;5033984;28;20488;-71
2022/05/12 00:24:40;;;;;;;;;;;9.90;99.90;;;;;;5033548;28;19909;-70
2022/05/12 00:27:05;;;;;;;;;;;9.80;99.90;;;;;;5026058;28;19913;-70
2022/05/12 00:29:31;;;;;;;;;;;9.80;99.90;;;;;;5016724;28;20271;-71
2022/05/12 00:31:57;;;;;;;;;;;9.80;99.90;;;;;;5015469;28;20221;-71
2022/05/12 00:34:22;;;;;;;;;;;9.80;99.90;;;;;;5042973;28;19909;-71
2022/05/12 00:36:48;;;;;;;;;;;9.70;99.90;;;;;;5040634;28;19917;-71
2022/05/12 00:39:14;;;;;;;;;;;9.60;99.90;;;;;;5030832;28;20012;-70
2022/05/12 00:41:40;;;;;;;;;;;9.60;99.90;;;;;;5032442;28;19920;-71
2022/05/12 00:44:08;;;;;;;;;;;9.60;99.90;;;;;;5034741;28;19913;-70
2022/05/12 00:46:37;;;;;;;;;;;9.60;99.90;;;;;;5033203;28;19920;-70
2022/05/12 00:49:09;;;;;;;;;;;9.50;99.90;;;;;;5035378;28;19913;-71
2022/05/12 00:51:41;;;;;;;;;;;9.50;99.90;;;;;;5030656;28;19927;-70
2022/05/12 00:54:10;;;;;;;;;;;9.50;99.90;;;;;;5035272;28;19920;-71
2022/05/12 00:56:36;;;;;;;;;;;9.40;99.90;;;;;;5033451;28;19951;-70
2022/05/12 00:59:06;;;;;;;;;;;9.40;99.90;;;;;;5034293;28;19959;-70
2022/05/12 01:01:31;;;;;;;;;;;9.50;99.90;;;;;;5033861;28;19956;-71
2022/05/12 01:03:58;;;;;;;;;;;9.40;99.90;;;;;;5035124;28;19964;-70
2022/05/12 01:06:24;;;;;;;;;;;9.40;99.90;;;;;;5033952;28;19916;-70
2022/05/12 01:08:50;;;;;;;;;;;9.30;99.90;;;;;;5031266;28;19913;-70
2022/05/12 01:11:17;;;;;;;;;;;9.30;99.90;;;;;;5017034;28;20194;-70
2022/05/12 01:13:45;;;;;;;;;;;9.30;99.90;;;;;;5033203;28;19925;-71
2022/05/12 01:16:11;;;;;;;;;;;9.20;99.90;;;;;;5035015;28;20198;-71
2022/05/12 01:18:38;;;;;;;;;;;9.20;99.90;;;;;;5033942;28;19939;-70
2022/05/12 01:21:04;;;;;;;;;;;9.20;99.90;;;;;;5032166;28;20063;-70
2022/05/12 01:23:32;;;;;;;;;;;9.20;99.90;;;;;;5015646;28;19956;-70
2022/05/12 01:25:59;;;;;;;;;;;9.10;99.90;;;;;;5016408;28;20031;-73
2022/05/12 01:28:25;;;;;;;;;;;9.10;99.90;;;;;;5024522;28;19913;-70
2022/05/12 01:30:51;;;;;;;;;;;9.10;99.90;;;;;;5034850;28;20323;-70
2022/05/12 01:33:17;;;;;;;;;;;9.10;99.90;;;;;;5030785;28;19961;-71
2022/05/12 01:35:42;;;;;;;;;;;9.20;99.90;;;;;;5030519;28;19923;-71
2022/05/12 01:38:08;;;;;;;;;;;9.20;99.90;;;;;;5032447;28;19917;-70
2022/05/12 01:40:33;;;;;;;;;;;9.20;99.90;;;;;;5032812;28;19923;-71
2022/05/12 01:42:59;;;;;;;;;;;9.30;99.90;;;;;;5036742;28;20259;-72
2022/05/12 01:45:26;;;;;;;;;;;9.30;99.90;;;;;;5031407;28;19935;-70
2022/05/12 01:47:52;;;;;;;;;;;9.20;99.90;;;;;;5033451;28;19917;-71
2022/05/12 01:50:18;;;;;;;;;;;9.20;99.90;;;;;;5033086;28;20012;-71
2022/05/12 01:52:44;;;;;;;;;;;9.20;99.90;;;;;;5018742;28;19914;-71
2022/05/12 01:55:11;;;;;;;;;;;9.20;99.90;;;;;;5050630;28;19936;-70
2022/05/12 01:57:37;;;;;;;;;;;9.20;99.90;;;;;;5027093;28;19963;-71
2022/05/12 02:00:04;;;;;;;;;;;9.20;99.90;;;;;;5035025;28;19913;-70
2022/05/12 02:02:30;;;;;;;;;;;9.20;99.90;;;;;;5038177;28;20304;-70
2022/05/12 02:04:55;;;;;;;;;;;9.20;99.90;;;;;;5037252;28;19967;-71
2022/05/12 02:07:21;;;;;;;;;;;9.20;99.90;;;;;;5035292;28;19913;-70
2022/05/12 02:09:46;;;;;;;;;;;9.10;99.90;;;;;;5036634;28;20215;-70
2022/05/12 02:12:13;;;;;;;;;;;9.10;99.90;;;;;;5035656;28;20304;-70
2022/05/12 02:14:39;;;;;;;;;;;9.10;99.90;;;;;;5036290;28;19917;-70
2022/05/12 02:17:05;;;;;;;;;;;9.10;99.90;;;;;;5067174;28;19945;-70
2022/05/12 02:19:30;;;;;;;;;;;9.10;99.90;;;;;;5021273;28;19990;-70
2022/05/12 02:21:58;;;;;;;;;;;9.10;99.90;;;;;;5036248;28;19917;-73
2022/05/12 02:24:23;;;;;;;;;;;9.10;99.90;;;;;;5034602;28;19919;-71
2022/05/12 02:26:49;;;;;;;;;;;9.10;99.90;;;;;;5037940;28;20004;-71
2022/05/12 02:29:15;;;;;;;;;;;9.10;99.90;;;;;;5019588;28;20316;-73
2022/05/12 02:31:40;;;;;;;;;;;9.10;99.90;;;;;;5024001;28;19917;-70
2022/05/12 02:34:06;;;;;;;;;;;9.30;99.90;;;;;;5040986;28;19925;-71
2022/05/12 02:36:31;;;;;;;;;;;9.30;99.90;;;;;;5040838;28;20232;-71
2022/05/12 02:38:57;;;;;;;;;;;9.40;99.90;;;;;;5030181;28;19917;-70
2022/05/12 02:41:23;;;;;;;;;;;9.50;99.90;;;;;;5034909;28;19913;-70
2022/05/12 02:43:49;;;;;;;;;;;9.50;99.90;;;;;;5041672;28;19957;-70
2022/05/12 02:46:15;;;;;;;;;;;9.40;99.90;;;;;;5064765;28;19914;-71
2022/05/12 02:48:42;;;;;;;;;;;9.40;99.90;;;;;;5017986;28;19927;-71
2022/05/12 02:51:08;;;;;;;;;;;9.40;99.90;;;;;;5024645;28;19921;-70
2022/05/12 02:53:34;;;;;;;;;;;9.40;99.90;;;;;;5035686;28;20019;-70
2022/05/12 02:56:00;;;;;;;;;;;9.40;99.90;;;;;;5037195;28;19917;-70
2022/05/12 02:58:27;;;;;;;;;;;9.40;99.90;;;;;;5037210;28;19910;-71
2022/05/12 03:00:53;;;;;;;;;;;9.40;99.90;;;;;;5034801;28;19970;-70
2022/05/12 03:03:18;;;;;;;;;;;9.40;99.90;;;;;;5032701;28;19994;-70
2022/05/12 03:05:44;;;;;;;;;;;9.40;99.90;;;;;;5063494;28;19917;-70
2022/05/12 03:08:10;;;;;;;;;;;9.40;99.90;;;;;;5034620;28;19920;-70
2022/05/12 03:10:36;;;;;;;;;;;9.40;99.90;;;;;;5017206;28;19984;-70
2022/05/12 03:13:02;;;;;;;;;;;9.50;99.90;;;;;;5063552;28;19929;-73
2022/05/12 03:15:28;;;;;;;;;;;9.40;99.90;;;;;;5033540;28;19979;-70
2022/05/12 03:17:54;;;;;;;;;;;9.40;99.90;;;;;;5035509;28;19913;-70
2022/05/12 03:20:22;;;;;;;;;;;9.40;99.90;;;;;;5036707;28;20383;-70
2022/05/12 03:22:48;;;;;;;;;;;9.30;99.90;;;;;;5035293;28;20354;-70
2022/05/12 03:25:14;;;;;;;;;;;9.30;99.90;;;;;;5026682;28;19917;-70
2022/05/12 03:27:40;;;;;;;;;;;9.30;99.90;;;;;;5030639;28;20346;-70
2022/05/12 03:30:07;;;;;;;;;;;9.30;99.90;;;;;;5036622;28;19917;-70
2022/05/12 03:32:33;;;;;;;;;;;9.20;99.90;;;;;;5035532;28;19913;-70
2022/05/12 03:34:59;;;;;;;;;;;9.10;99.90;;;;;;5033169;28;20369;-70
2022/05/12 03:37:25;;;;;;;;;;;9.00;99.90;;;;;;5035080;28;19909;-70
2022/05/12 03:39:50;;;;;;;;;;;9.00;99.90;;;;;;5067668;28;19917;-70
2022/05/12 03:42:18;;;;;;;;;;;9.00;99.90;;;;;;5064337;28;19913;-70
2022/05/12 03:44:49;;;;;;;;;;;9.00;99.90;;;;;;5032983;28;19972;-70
2022/05/12 03:47:15;;;;;;;;;;;9.00;99.90;;;;;;5029901;28;19914;-70
2022/05/12 03:49:41;;;;;;;;;;;9.00;99.90;;;;;;5025450;28;19913;-70
2022/05/12 03:52:07;;;;;;;;;;;8.90;99.90;;;;;;5030615;28;20308;-70
2022/05/12 03:54:34;;;;;;;;;;;8.90;99.90;;;;;;5022473;28;19920;-69
2022/05/12 03:57:00;;;;;;;;;;;8.90;99.90;;;;;;5024367;28;19917;-70
2022/05/12 03:59:26;;;;;;;;;;;8.90;99.90;;;;;;5032819;28;20293;-74
2022/05/12 04:01:51;;;;;;;;;;;8.90;99.90;;;;;;5032923;28;19920;-70
2022/05/12 04:04:17;;;;;;;;;;;9.00;99.90;;;;;;5034070;28;20325;-70
2022/05/12 04:06:43;;;;;;;;;;;8.90;99.90;;;;;;5026945;28;20334;-69
2022/05/12 04:09:08;;;;;;;;;;;9.00;99.90;;;;;;5029058;28;19939;-70
2022/05/12 04:11:34;;;;;;;;;;;9.00;99.90;;;;;;5029527;28;19913;-70
2022/05/12 04:13:59;;;;;;;;;;;9.00;99.90;;;;;;5027012;28;19925;-70
2022/05/12 04:16:25;;;;;;;;;;;9.00;99.90;;;;;;5055780;28;20205;-70
2022/05/12 04:18:51;;;;;;;;;;;9.00;99.90;;;;;;5031139;28;20352;-70
2022/05/12 04:21:16;;;;;;;;;;;9.10;99.90;;;;;;5030992;28;20197;-69
2022/05/12 04:23:44;;;;;;;;;;;9.10;99.90;;;;;;5031748;28;19909;-70
2022/05/12 04:26:10;;;;;;;;;;;9.20;99.90;;;;;;5029192;28;20292;-70
2022/05/12 04:28:36;;;;;;;;;;;9.20;99.90;;;;;;5029967;28;20287;-70
2022/05/12 04:31:02;;;;;;;;;;;9.30;99.90;;;;;;5032569;28;19952;-70
2022/05/12 04:36:13;;;;;;;;;;;9.50;99.90;;;;;;5032264;28;19927;-70
2022/05/12 04:38:39;;;;;;;;;;;9.50;99.90;;;;;;5030704;28;19919;-70
2022/05/12 04:41:06;;;;;;;;;;;9.50;99.90;;;;;;5031806;28;20012;-70
2022/05/12 04:43:32;;;;;;;;;;;9.50;99.90;;;;;;5057136;28;19927;-70
2022/05/12 04:45:57;;;;;;;;;;;9.60;99.90;;;;;;5028316;28;20247;-73
2022/05/12 04:48:24;;;;;;;;;;;9.60;99.90;;;;;;5026626;28;19975;-70
2022/05/12 04:50:50;;;;;;;;;;;9.70;99.90;;;;;;5032417;28;19913;-70
2022/05/12 04:53:15;;;;;;;;;;;9.80;99.90;;;;;;5034221;28;19959;-70
2022/05/12 04:55:41;;;;;;;;;;;9.90;99.90;;;;;;5027111;28;19928;-70
2022/05/12 04:58:07;;;;;;;;;;;9.90;99.90;;;;;;5032049;28;19916;-69
2022/05/12 05:00:37;;;;;;;;;;;10.00;99.90;;;;;;5027351;28;20272;-70
2022/05/12 05:03:04;;;;;;;;;;;10.10;99.90;;;;;;5057010;28;20217;-70
2022/05/12 05:05:30;;;;;;;;;;;10.10;99.90;;;;;;5029592;28;19996;-70
2022/05/12 05:07:56;;;;;;;;;;;10.20;99.90;;;;;;5028892;28;20011;-70
2022/05/12 05:10:22;;;;;;;;;;;10.20;99.90;;;;;;5034089;28;20407;-70
2022/05/12 05:12:48;;;;;;;;;;;10.30;99.90;;;;;;5024157;28;19925;-70
2022/05/12 05:15:14;;;;;;;;;;;10.30;99.90;;;;;;5015775;28;20217;-70
2022/05/12 05:17:41;;;;;;;;;;;10.30;99.90;;;;;;5048828;28;20257;-70
2022/05/12 05:20:08;;;;;;;;;;;10.30;99.90;;;;;;5033352;28;20299;-74
2022/05/12 05:22:34;;;;;;;;;;;10.40;99.90;;;;;;5032798;28;19913;-70
2022/05/12 05:25:00;;;;;;;;;;;10.50;99.90;;;;;;5020098;28;19924;-70
2022/05/12 05:27:25;;;;;;;;;;;10.40;99.90;;;;;;5034423;28;19920;-70
2022/05/12 05:29:51;;;;;;;;;;;10.50;99.90;;;;;;5035818;28;20103;-70
2022/05/12 05:32:17;;;;;;;;;;;10.50;99.90;;;;;;5037954;28;20311;-74
2022/05/12 05:34:42;;;;;;;;;;;10.50;99.90;;;;;;5037290;28;20243;-70
2022/05/12 05:37:08;;;;;;;;;;;10.60;99.90;;;;;;5037508;28;19921;-72
2022/05/12 05:39:33;;;;;;;;;;;10.70;99.90;;;;;;5034598;28;19937;-70
2022/05/12 05:42:04;;;;;;;;;;;10.70;99.90;;;;;;5035678;28;20341;-70
2022/05/12 05:44:32;;;;;;;;;;;10.80;99.90;;;;;;5035882;28;19967;-70
2022/05/12 05:47:01;;;;;;;;;;;10.80;99.90;;;;;;5018810;28;20008;-70
2022/05/12 05:49:28;;;;;;;;;;;10.90;99.90;;;;;;5031983;28;19965;-70
2022/05/12 05:54:38;;;;;;;;;;;11.00;99.90;;;;;;5037319;28;20266;-70
2022/05/12 05:57:04;;;;;;;;;;;11.00;99.90;;;;;;5035000;28;19917;-70
2022/05/12 05:59:30;;;;;;;;;;;11.10;99.90;;;;;;5036136;28;19975;-70
2022/05/12 06:01:56;;;;;;;;;;;11.20;99.90;;;;;;5032091;28;19913;-70
2022/05/12 06:04:21;;;;;;;;;;;11.20;99.90;;;;;;5020779;28;20032;-69
2022/05/12 06:06:47;;;;;;;;;;;11.30;99.90;;;;;;5024099;28;19977;-70
2022/05/12 06:09:13;;;;;;;;;;;11.40;99.90;;;;;;5034863;28;19913;-70
2022/05/12 06:11:41;;;;;;;;;;;11.50;99.90;;;;;;5036691;28;19909;-70
2022/05/12 06:14:07;;;;;;;;;;;11.60;99.90;;;;;;5037466;28;19929;-70
2022/05/12 06:16:33;;;;;;;;;;;11.70;99.90;;;;;;5026028;28;20207;-72
2022/05/12 06:18:59;;;;;;;;;;;11.70;99.90;;;;;;5038412;28;20003;-70
2022/05/12 06:21:24;;;;;;;;;;;11.80;99.90;;;;;;5036947;28;19917;-70
2022/05/12 06:23:50;;;;;;;;;;;11.90;99.90;;;;;;5025177;28;19967;-70
2022/05/12 06:26:15;;;;;;;;;;;11.90;99.90;;;;;;5022729;28;20020;-73
2022/05/12 06:28:47;;;;;;;;;;;11.90;99.90;;;;;;5034940;28;20324;-70
2022/05/12 06:31:13;;;;;;;;;;;12.00;99.90;;;;;;5034974;28;19913;-70
2022/05/12 06:33:40;;;;;;;;;;;12.00;99.90;;;;;;5033392;28;20201;-73
2022/05/12 06:36:07;;;;;;;;;;;12.10;99.90;;;;;;5033485;28;20546;-70
2022/05/12 06:38:34;;;;;;;;;;;12.20;99.90;;;;;;5032516;28;19917;-70
2022/05/12 06:41:00;;;;;;;;;;;12.30;99.90;;;;;;5033319;28;20220;-70
2022/05/12 06:43:26;;;;;;;;;;;12.30;99.90;;;;;;5034848;28;19914;-70
2022/05/12 06:45:52;;;;;;;;;;;12.40;99.90;;;;;;5033351;28;19939;-70
2022/05/12 06:48:20;;;;;;;;;;;12.50;99.90;;;;;;5031912;28;20015;-70
2022/05/12 06:50:47;;;;;;;;;;;12.50;99.90;;;;;;5032825;28;19913;-73
2022/05/12 06:53:13;;;;;;;;;;;12.60;99.90;;;;;;5033437;28;19921;-70
2022/05/12 06:55:39;;;;;;;;;;;12.70;99.90;;;;;;5033269;28;19923;-70
2022/05/12 06:58:04;;;;;;;;;;;12.70;99.90;;;;;;5033549;28;20257;-70
2022/05/12 07:00:30;;;;;;;;;;;12.70;99.90;;;;;;5032389;28;19921;-71
2022/05/12 07:02:56;;;;;;;;;;;12.70;99.90;;;;;;5030257;28;19959;-70
2022/05/12 07:05:23;;;;;;;;;;;12.90;99.90;;;;;;5034352;28;19975;-70
2022/05/12 07:07:48;;;;;;;;;;;12.90;99.90;;;;;;5033178;28;20020;-72
2022/05/12 07:10:15;;;;;;;;;;;13.00;99.90;;;;;;5032075;28;20371;-70
2022/05/12 07:12:44;;;;;;;;;;;13.10;99.90;;;;;;5031672;28;19971;-70
2022/05/12 07:15:10;;;;;;;;;;;13.20;99.90;;;;;;5035854;28;19939;-71
2022/05/12 07:17:39;;;;;;;;;;;13.20;99.90;;;;;;5035191;28;19913;-70
2022/05/12 07:28:18;;;;;;;;;;;14.90;99.90;;;;;;5018331;28;20215;-69
2022/05/12 07:31:02;;;;;;;;;;;15.30;99.90;;;;;;5016824;28;19909;-70
2022/05/12 07:33:32;;;;;;;;;;;15.70;99.90;;;;;;5016678;28;19909;-74
2022/05/12 07:35:58;;;;;;;;;;;16.00;99.90;;;;;;5033349;28;19917;-70
2022/05/12 07:38:24;;;;;;;;;;;16.40;99.90;;;;;;5037880;28;20215;-70
2022/05/12 07:40:50;;;;;;;;;;;16.70;99.90;;;;;;5028067;28;19920;-70
2022/05/12 07:43:16;;;;;;;;;;;17.10;99.90;;;;;;5033413;28;19913;-69
2022/05/12 07:45:41;;;;;;;;;;;17.20;99.90;;;;;;5035503;28;20000;-70
2022/05/12 07:48:07;;;;;;;;;;;17.60;99.90;;;;;;5031377;28;19935;-70
2022/05/12 07:50:33;;;;;;;;;;;17.80;99.90;;;;;;5016710;28;19949;-70
2022/05/12 07:52:59;;;;;;;;;;;18.00;99.90;;;;;;5034649;28;19913;-70
2022/05/12 07:55:24;;;;;;;;;;;18.00;99.90;;;;;;5035932;28;19936;-70
2022/05/12 07:57:50;;;;;;;;;;;18.40;99.90;;;;;;5036086;28;19909;-70
2022/05/12 08:00:16;;;;;;;;;;;18.60;99.90;;;;;;5034289;28;19944;-70
2022/05/12 08:02:41;;;;;;;;;;;18.90;99.90;;;;;;5035989;28;19913;-70
2022/05/12 08:05:07;;;;;;;;;;;19.00;99.90;;;;;;5067947;28;20411;-70
2022/05/12 08:07:32;;;;;;;;;;;19.00;99.90;;;;;;5035948;28;19959;-73
2022/05/12 08:10:01;;;;;;;;;;;19.10;99.90;;;;;;5033467;28;19923;-70
2022/05/12 08:12:26;;;;;;;;;;;19.20;99.90;;;;;;5033674;28;19924;-70
2022/05/12 08:14:52;;;;;;;;;;;19.40;99.90;;;;;;5033471;28;19917;-70
2022/05/12 08:17:18;;;;;;;;;;;19.60;99.90;;;;;;5035823;28;19917;-70
2022/05/12 08:19:44;;;;;;;;;;;19.40;99.90;;;;;;5026588;28;20326;-70
2022/05/12 08:22:09;;;;;;;;;;;19.70;99.90;;;;;;5015767;28;19959;-70
2022/05/12 08:24:35;;;;;;;;;;;19.50;99.90;;;;;;5016831;28;20030;-70
2022/05/12 08:27:01;;;;;;;;;;;19.60;99.90;;;;;;5015969;28;19917;-70
2022/05/12 08:29:26;;;;;;;;;;;19.80;99.90;;;;;;5049714;28;20610;-70
2022/05/12 08:31:52;;;;;;;;;;;20.00;99.90;;;;;;5033816;28;19971;-70
2022/05/12 08:34:17;;;;;;;;;;;19.80;99.90;;;;;;5035600;28;20327;-74
2022/05/12 08:36:43;;;;;;;;;;;20.00;99.90;;;;;;5035547;28;19919;-70
2022/05/12 08:39:08;;;;;;;;;;;20.20;99.70;;;;;;5032604;28;19971;-70
2022/05/12 08:41:34;;;;;;;;;;;20.10;99.90;;;;;;5047584;28;19953;-70
2022/05/12 08:44:02;;;;;;;;;;;20.10;98.60;;;;;;5015642;28;19983;-70
2022/05/12 08:46:27;;;;;;;;;;;20.30;99.10;;;;;;5016360;28;19963;-70
2022/05/12 08:49:25;;;;;;;;;;;20.20;98.40;;;;;;5029837;28;19922;-70
2022/05/12 08:51:52;;;;;;;;;;;20.20;98.40;;;;;;5010819;28;19945;-70
2022/05/12 08:54:21;;;;;;;;;;;20.30;98.00;;;;;;5032520;28;19921;-70
2022/05/12 08:56:47;;;;;;;;;;;20.20;99.50;;;;;;5032284;28;19921;-71
2022/05/12 08:59:13;;;;;;;;;;;20.30;98.10;;;;;;5033135;28;19921;-70
2022/05/12 09:01:42;;;;;;;;;;;20.40;99.90;;;;;;5034669;28;20004;-69
2022/05/12 09:04:10;;;;;;;;;;;20.40;97.70;;;;;;5035815;28;19914;-70
2022/05/12 09:06:41;;;;;;;;;;;20.50;97.80;;;;;;5036066;28;19921;-69
2022/05/12 09:09:19;;;;;;;;;;;20.40;97.40;;;;;;5037601;28;20370;-69
2022/05/12 09:11:47;;;;;;;;;;;20.50;97.20;;;;;;5035047;28;19913;-69
2022/05/12 09:14:16;;;;;;;;;;;19.90;97.00;;;;;;5021898;28;19928;-69
2022/05/12 09:16:42;;;;;;;;;;;20.10;97.80;;;;;;5024046;28;19933;-70
2022/05/12 09:19:09;;;;;;;;;;;20.30;97.70;;;;;;5019136;28;19914;-73
2022/05/12 09:21:36;;;;;;;;;;;20.30;98.00;;;;;;5029982;28;19920;-70
2022/05/12 09:24:03;;;;;;;;;;;20.70;96.00;;;;;;5034577;28;19917;-69
2022/05/12 09:26:47;;;;;;;;;;;20.70;97.00;;;;;;5032490;28;20377;-70
2022/05/12 09:29:18;;;;;;;;;;;20.70;96.30;;;;;;5038050;28;19984;-73
2022/05/12 09:31:46;;;;;;;;;;;20.90;96.10;;;;;;5036009;28;20335;-72
2022/05/12 09:34:18;;;;;;;;;;;21.10;95.50;;;;;;5036867;28;19924;-70
2022/05/12 09:36:43;;;;;;;;;;;21.30;94.30;;;;;;5031133;28;20022;-69
2022/05/12 09:39:09;;;;;;;;;;;21.50;94.70;;;;;;5028083;28;19971;-69
2022/05/12 09:41:39;;;;;;;;;;;21.50;93.70;;;;;;5038089;28;20189;-70
2022/05/12 09:44:17;;;;;;;;;;;21.30;93.50;;;;;;5037052;28;20339;-69
2022/05/12 09:46:54;;;;;;;;;;;21.60;93.80;;;;;;5037362;28;19941;-72
2022/05/12 09:49:21;;;;;;;;;;;21.90;94.10;;;;;;5035508;28;19917;-69
2022/05/12 09:51:47;;;;;;;;;;;22.10;94.20;;;;;;5036431;28;19922;-69
2022/05/12 09:54:15;;;;;;;;;;;21.80;91.60;;;;;;5037160;28;19913;-72
2022/05/12 09:56:41;;;;;;;;;;;20.70;93.30;;;;;;5032511;28;20020;-69
2022/05/12 09:59:10;;;;;;;;;;;20.50;94.00;;;;;;5033222;28;19917;-69
2022/05/12 10:01:48;;;;;;;;;;;20.80;94.80;;;;;;5034929;28;19913;-70
2022/05/12 10:09:51;;;;;;;;;;;20.80;94.20;;;;;;5034287;28;19925;-69
2022/05/12 10:12:24;;;;;;;;;;;20.80;94.30;;;;;;5033025;28;19932;-69
2022/05/12 10:14:53;;;;;;;;;;;20.80;94.90;;;;;;5035159;28;19917;-69
2022/05/12 10:17:34;;;;;;;;;;;20.70;94.70;;;;;;5035149;28;19932;-69
2022/05/12 10:20:08;;;;;;;;;;;21.00;93.30;;;;;;5033916;28;19932;-69
2022/05/12 10:22:39;;;;;;;;;;;20.60;93.30;;;;;;5032827;28;19928;-69
2022/05/12 10:25:13;;;;;;;;;;;20.40;94.00;;;;;;5033395;28;19979;-69
2022/05/12 10:27:44;;;;;;;;;;;20.20;93.10;;;;;;5035361;28;20238;-69
2022/05/12 10:30:29;;;;;;;;;;;20.00;94.10;;;;;;5034257;28;19913;-69
2022/05/12 10:32:58;;;;;;;;;;;19.80;94.30;;;;;;5034107;28;19917;-69
2022/05/12 10:35:43;;;;;;;;;;;19.40;93.50;;;;;;5035154;28;19921;-69
2022/05/12 10:38:17;;;;;;;;;;;18.90;93.00;;;;;;5013904;28;20267;-68
2022/05/12 10:40:43;;;;;;;;;;;19.00;96.70;;;;;;5013876;28;20136;-69
2022/05/12 10:43:27;;;;;;;;;;;19.60;95.00;;;;;;5013598;28;19937;-69
2022/05/12 10:45:58;;;;;;;;;;;19.50;94.50;;;;;;5011243;28;19921;-69
2022/05/12 10:48:42;;;;;;;;;;;19.20;94.00;;;;;;5011107;28;19914;-69
2022/05/12 10:51:21;;;;;;;;;;;19.50;94.30;;;;;;5011137;28;20442;-69
2022/05/12 10:53:48;;;;;;;;;;;20.10;94.00;;;;;;5009963;28;20461;-68
2022/05/12 10:56:32;;;;;;;;;;;20.20;94.10;;;;;;5008829;28;20305;-68
2022/05/12 10:59:17;;;;;;;;;;;19.90;93.50;;;;;;5014929;28;19917;-69
2022/05/12 11:01:45;;;;;;;;;;;20.20;95.10;;;;;;5015199;28;19909;-68
2022/05/12 11:04:12;;;;;;;;;;;20.80;95.30;;;;;;5013195;28;19909;-69
2022/05/12 11:06:40;;;;;;;;;;;21.20;93.40;;;;;;5015064;28;19918;-69
2022/05/12 11:09:14;;;;;;;;;;;21.50;93.00;;;;;;5038363;28;20296;-69
2022/05/12 11:11:42;;;;;;;;;;;21.50;92.80;;;;;;5031284;28;19909;-69
2022/05/12 11:14:21;;;;;;;;;;;21.50;92.90;;;;;;5019379;28;19953;-70
2022/05/12 11:16:57;;;;;;;;;;;21.50;93.20;;;;;;5019748;28;19917;-70
2022/05/12 11:19:24;;;;;;;;;;;21.10;92.90;;;;;;5036678;28;20328;-69
2022/05/12 11:21:49;;;;;;;;;;;21.10;94.00;;;;;;5036024;28;19909;-69
2022/05/12 11:24:18;;;;;;;;;;;21.60;93.50;;;;;;5030820;28;19920;-69
2022/05/12 11:26:49;;;;;;;;;;;22.00;91.90;;;;;;5032208;28;19914;-69
2022/05/12 11:32:11;;;;;;;;;;;22.40;92.30;;;;;;5035689;28;20216;-69
2022/05/12 11:34:38;;;;;;;;;;;22.30;91.40;;;;;;5023235;28;19924;-72
2022/05/12 11:37:22;;;;;;;;;;;22.20;90.60;;;;;;5035269;28;19967;-73
2022/05/12 11:39:54;;;;;;;;;;;22.60;92.30;;;;;;5032672;28;19952;-69
2022/05/12 11:42:28;;;;;;;;;;;22.50;90.70;;;;;;5029172;28;19913;-69
2022/05/12 11:44:53;;;;;;;;;;;22.60;91.30;;;;;;5024315;28;19932;-69
2022/05/12 11:47:22;;;;;;;;;;;22.40;89.90;;;;;;5027127;28;19925;-69
2022/05/12 11:49:53;;;;;;;;;;;22.10;91.70;;;;;;5027760;28;19999;-70
2022/05/12 11:52:21;;;;;;;;;;;22.00;91.80;;;;;;5027882;28;19925;-69
2022/05/12 11:54:52;;;;;;;;;;;21.50;91.60;;;;;;5025985;28;19956;-69
2022/05/12 11:57:23;;;;;;;;;;;20.90;91.30;;;;;;5031755;28;19968;-70
2022/05/12 11:59:50;;;;;;;;;;;20.50;92.50;;;;;;5031755;28;19917;-69
2022/05/12 12:02:28;;;;;;;;;;;20.70;91.70;;;;;;5032059;28;19921;-69
2022/05/12 12:04:56;;;;;;;;;;;20.40;91.80;;;;;;5030840;28;19956;-69
2022/05/12 12:07:21;;;;;;;;;;;20.40;91.30;;;;;;5033673;28;19913;-70
2022/05/12 12:09:57;;;;;;;;;;;20.20;91.80;;;;;;5034236;28;19975;-70
2022/05/12 12:12:38;;;;;;;;;;;20.00;91.60;;;;;;5033543;28;19971;-73
2022/05/12 12:15:04;;;;;;;;;;;20.30;92.00;;;;;;5034364;28;19940;-69
2022/05/12 12:17:34;;;;;;;;;;;21.00;93.20;;;;;;5025321;28;20228;-70
2022/05/12 12:20:09;;;;;;;;;;;21.00;90.80;;;;;;5033920;28;19913;-69
2022/05/12 12:22:38;;;;;;;;;;;20.90;91.20;;;;;;5035640;28;20304;-70
2022/05/12 12:25:16;;;;;;;;;;;21.20;92.00;;;;;;5034539;28;19913;-70
2022/05/12 12:27:50;;;;;;;;;;;21.40;90.90;;;;;;5032719;28;19921;-69
2022/05/12 12:30:21;;;;;;;;;;;21.70;91.00;;;;;;5035024;28;19913;-73
2022/05/12 12:32:51;;;;;;;;;;;22.10;91.10;;;;;;5035608;28;19920;-70
2022/05/12 12:35:19;;;;;;;;;;;22.20;89.40;;;;;;5033340;28;19920;-69
2022/05/12 12:37:47;;;;;;;;;;;22.10;88.20;;;;;;5033400;28;19928;-70
2022/05/12 12:40:30;;;;;;;;;;;21.50;88.30;;;;;;5035229;28;19983;-69
2022/05/12 12:42:56;;;;;;;;;;;20.90;90.60;;;;;;5033729;28;19913;-70
2022/05/12 12:45:22;;;;;;;;;;;21.10;90.50;;;;;;5034876;28;20248;-70
2022/05/12 12:47:55;;;;;;;;;;;20.60;90.60;;;;;;5034009;28;19928;-69
2022/05/12 12:50:41;;;;;;;;;;;20.40;90.60;;;;;;5034373;28;19913;-69
2022/05/12 12:53:19;;;;;;;;;;;20.00;91.40;;;;;;5034648;28;19924;-69
2022/05/12 12:58:42;;;;;;;;;;;19.90;92.10;;;;;;5034785;28;19968;-70
2022/05/12 13:01:14;;;;;;;;;;;19.70;91.20;;;;;;5015671;28;20319;-70
2022/05/12 13:03:43;;;;;;;;;;;19.60;92.00;;;;;;5015404;28;19910;-69
2022/05/12 13:06:12;;;;;;;;;;;19.70;91.50;;;;;;5047903;28;20012;-70
2022/05/12 13:08:38;;;;;;;;;;;20.00;91.90;;;;;;5033744;28;19948;-72
2022/05/12 13:11:05;;;;;;;;;;;20.40;90.50;;;;;;5030734;28;20208;-70
2022/05/12 13:13:30;;;;;;;;;;;20.80;90.20;;;;;;5029669;28;19933;-70
2022/05/12 13:16:01;;;;;;;;;;;21.20;91.60;;;;;;5027336;28;19925;-70
2022/05/12 13:18:28;;;;;;;;;;;21.50;90.50;;;;;;5032208;28;19913;-70
2022/05/12 13:20:54;;;;;;;;;;;21.80;89.00;;;;;;5032782;28;19920;-69
2022/05/12 13:23:27;;;;;;;;;;;21.80;87.20;;;;;;5029665;28;19917;-70
2022/05/12 13:25:53;;;;;;;;;;;21.60;90.10;;;;;;5013796;28;19910;-70
2022/05/12 13:28:21;;;;;;;;;;;21.20;89.70;;;;;;5015403;28;20301;-70
2022/05/12 13:30:48;;;;;;;;;;;20.80;88.20;;;;;;5058278;28;19921;-69
2022/05/12 13:33:23;;;;;;;;;;;20.50;90.40;;;;;;5031319;28;19913;-72
2022/05/12 13:36:03;;;;;;;;;;;20.20;90.30;;;;;;5039709;28;19921;-70
2022/05/12 13:38:31;;;;;;;;;;;20.00;91.00;;;;;;5034816;28;19914;-70
2022/05/12 13:40:58;;;;;;;;;;;19.90;90.20;;;;;;5032617;28;20324;-70
2022/05/12 13:43:39;;;;;;;;;;;19.40;90.80;;;;;;5033621;28;19959;-70
2022/05/12 13:46:04;;;;;;;;;;;19.70;91.60;;;;;;5036415;28;19916;-73
2022/05/12 13:48:30;;;;;;;;;;;20.10;91.50;;;;;;5036898;28;20212;-70
2022/05/12 13:50:57;;;;;;;;;;;20.60;90.80;;;;;;5068681;28;19967;-69
2022/05/12 13:53:27;;;;;;;;;;;20.90;90.20;;;;;;5038306;28;20000;-69
2022/05/12 13:56:05;;;;;;;;;;;21.00;89.20;;;;;;5020355;28;19960;-70
2022/05/12 13:58:30;;;;;;;;;;;20.50;91.30;;;;;;5019456;28;19910;-70
2022/05/12 14:00:56;;;;;;;;;;;20.70;90.20;;;;;;5037471;28;20003;-69
2022/05/12 14:03:30;;;;;;;;;;;20.90;90.40;;;;;;5037097;28;19995;-70
2022/05/12 14:06:08;;;;;;;;;;;21.00;89.30;;;;;;5037153;28;19920;-70
2022/05/12 14:08:34;;;;;;;;;;;21.10;90.40;;;;;;5023040;28;19939;-70
2022/05/12 14:10:59;;;;;;;;;;;21.10;90.00;;;;;;5019702;28;19920;-69
2022/05/12 14:19:16;;;;;;;;;;;21.10;89.80;;;;;;5018050;28;20323;-69
2022/05/12 14:21:52;;;;;;;;;;;21.00;88.50;;;;;;5026045;28;20321;-69
2022/05/12 14:24:18;;;;;;;;;;;20.50;87.80;;;;;;5033840;28;19917;-70
2022/05/12 14:26:45;;;;;;;;;;;20.30;90.90;;;;;;5066693;28;19921;-70
2022/05/12 14:29:10;;;;;;;;;;;20.50;90.70;;;;;;5034161;28;20055;-70
2022/05/12 14:31:36;;;;;;;;;;;20.60;89.70;;;;;;5035474;28;20007;-70
2022/05/12 14:34:02;;;;;;;;;;;20.70;90.90;;;;;;5035579;28;19917;-70
2022/05/12 14:36:28;;;;;;;;;;;20.80;91.20;;;;;;5034101;28;19918;-69
2022/05/12 14:38:53;;;;;;;;;;;20.90;90.70;;;;;;5035446;28;19924;-69
2022/05/12 14:41:20;;;;;;;;;;;20.60;90.20;;;;;;5033832;28;19926;-70
2022/05/12 14:43:46;;;;;;;;;;;20.70;91.10;;;;;;5035432;28;19913;-73
2022/05/12 14:46:12;;;;;;;;;;;20.60;90.30;;;;;;5034102;28;19925;-70
2022/05/12 14:48:40;;;;;;;;;;;20.50;89.30;;;;;;5032257;28;19921;-69
2022/05/12 14:51:06;;;;;;;;;;;20.20;90.60;;;;;;5034653;28;19921;-70
2022/05/12 14:53:32;;;;;;;;;;;20.00;90.80;;;;;;5035106;28;19968;-70
2022/05/12 14:55:57;;;;;;;;;;;19.90;90.30;;;;;;5034906;28;20255;-70